Time;durP1;ratioP1;P1;durP2;ratioP2;P2;SDS_P1;SDS_P2;PMS_P1;PMS_P2;Temp;Humidity;BMP_temperature;BMP_pressure;BME280_temperature;BME280_humidity;BME280_pressure;Samples;Min_cycle;Max_cycle;Signal;HPM_P1;HPM_P2
2021/12/11 00:01:45;;;;;;;14.20;8.80;;;;;;;;;;5054527;28;20453;-73
2021/12/11 00:04:14;;;;;;;14.40;8.70;;;;;;;;;;5054322;28;20941;-73
2021/12/11 00:06:43;;;;;;;10.30;8.20;;;;;;;;;;5054270;28;20457;-73
2021/12/11 00:09:12;;;;;;;12.27;8.60;;;;;;;;;;5054414;28;20449;-73
2021/12/11 00:11:42;;;;;;;14.60;9.83;;;;;;;;;;5054448;28;20455;-73
2021/12/11 00:14:11;;;;;;;14.10;8.90;;;;;;;;;;5054311;28;20452;-73
2021/12/11 00:16:39;;;;;;;11.97;9.13;;;;;;;;;;5054147;28;20452;-73
2021/12/11 00:19:09;;;;;;;10.63;7.83;;;;;;;;;;5054325;28;21026;-73
2021/12/11 00:21:36;;;;;;;9.23;6.57;;;;;;;;;;5054213;28;20941;-73
2021/12/11 00:24:05;;;;;;;15.60;7.83;;;;;;;;;;5053864;28;20457;-73
2021/12/11 00:26:34;;;;;;;14.00;8.83;;;;;;;;;;5054032;28;20453;-73
2021/12/11 00:29:01;;;;;;;8.57;7.23;;;;;;;;;;5053896;28;20460;-73
2021/12/11 00:31:31;;;;;;;9.80;6.67;;;;;;;;;;5053883;28;20457;-73
2021/12/11 00:33:58;;;;;;;9.53;5.90;;;;;;;;;;5053739;28;20453;-72
2021/12/11 00:36:31;;;;;;;7.40;5.70;;;;;;;;;;5053835;28;20456;-70
2021/12/11 00:39:02;;;;;;;9.17;6.40;;;;;;;;;;5053216;28;20855;-72
2021/12/11 00:41:32;;;;;;;9.53;5.07;;;;;;;;;;5053816;28;20461;-72
2021/12/11 00:44:01;;;;;;;8.77;6.00;;;;;;;;;;5053621;28;20453;-73
2021/12/11 00:46:30;;;;;;;9.07;6.10;;;;;;;;;;5053694;28;20475;-72
2021/12/11 00:49:07;;;;;;;6.60;5.20;;;;;;;;;;5053733;28;20451;-72
2021/12/11 00:51:34;;;;;;;7.27;4.87;;;;;;;;;;5053872;28;20459;-72
2021/12/11 00:54:01;;;;;;;7.00;4.50;;;;;;;;;;5053376;28;20459;-72
2021/12/11 00:56:30;;;;;;;5.63;4.07;;;;;;;;;;5053391;28;20460;-72
2021/12/11 00:59:00;;;;;;;4.50;3.70;;;;;;;;;;5053310;28;20491;-72
2021/12/11 01:01:28;;;;;;;6.03;4.37;;;;;;;;;;5053445;28;20465;-73
2021/12/11 01:03:58;;;;;;;4.80;3.70;;;;;;;;;;5053359;28;20464;-72
2021/12/11 01:06:27;;;;;;;5.40;2.93;;;;;;;;;;5053369;28;20445;-72
2021/12/11 01:08:58;;;;;;;4.70;3.30;;;;;;;;;;5053443;28;20445;-72
2021/12/11 01:11:26;;;;;;;9.23;4.40;;;;;;;;;;5053146;28;20464;-73
2021/12/11 01:13:59;;;;;;;5.97;4.27;;;;;;;;;;5053049;28;20949;-70
2021/12/11 01:16:26;;;;;;;5.83;3.60;;;;;;;;;;5053304;28;20457;-70
2021/12/11 01:18:58;;;;;;;5.50;4.20;;;;;;;;;;5053118;28;20488;-70
2021/12/11 01:21:33;;;;;;;6.37;2.93;;;;;;;;;;5053325;28;20457;-72
2021/12/11 01:24:14;;;;;;;3.87;3.50;;;;;;;;;;5052981;28;20456;-72
2021/12/11 01:26:44;;;;;;;4.67;2.50;;;;;;;;;;5053155;28;20945;-72
2021/12/11 01:29:12;;;;;;;4.43;3.83;;;;;;;;;;5053051;28;20437;-73
2021/12/11 01:31:39;;;;;;;5.07;2.87;;;;;;;;;;5052922;28;20457;-73
2021/12/11 01:34:07;;;;;;;2.80;2.13;;;;;;;;;;5052899;28;20454;-72
2021/12/11 01:36:36;;;;;;;3.80;2.83;;;;;;;;;;5052922;28;20453;-72
2021/12/11 01:39:07;;;;;;;4.90;3.07;;;;;;;;;;5052760;28;20855;-70
2021/12/11 01:41:34;;;;;;;3.40;2.70;;;;;;;;;;5052780;28;20805;-72
2021/12/11 01:44:05;;;;;;;4.17;2.40;;;;;;;;;;5052841;28;20453;-73
2021/12/11 01:46:32;;;;;;;3.00;2.00;;;;;;;;;;5053090;28;20937;-73
2021/12/11 01:49:01;;;;;;;3.20;2.30;;;;;;;;;;5052947;28;20460;-73
2021/12/11 01:51:32;;;;;;;3.00;2.00;;;;;;;;;;5056720;28;20456;-73
2021/12/11 01:54:02;;;;;;;5.00;2.10;;;;;;;;;;5056816;28;20510;-72
2021/12/11 01:56:31;;;;;;;2.93;2.60;;;;;;;;;;5056860;28;20457;-72
2021/12/11 01:59:02;;;;;;;4.60;2.50;;;;;;;;;;5056671;28;20496;-72
2021/12/11 02:01:32;;;;;;;5.60;2.23;;;;;;;;;;5056684;28;20556;-72
2021/12/11 02:04:00;;;;;;;3.53;2.33;;;;;;;;;;5056635;28;20929;-72
2021/12/11 02:06:29;;;;;;;3.47;2.13;;;;;;;;;;5056680;28;20452;-72
2021/12/11 02:08:56;;;;;;;2.40;2.20;;;;;;;;;;5056800;28;20875;-72
2021/12/11 02:11:26;;;;;;;3.97;2.37;;;;;;;;;;5056470;28;20827;-72
2021/12/11 02:13:57;;;;;;;3.23;2.00;;;;;;;;;;5056356;28;20491;-72
2021/12/11 02:16:26;;;;;;;1.93;1.47;;;;;;;;;;5056523;28;20958;-72
2021/12/11 02:18:55;;;;;;;6.37;2.30;;;;;;;;;;5056601;28;20449;-72
2021/12/11 02:21:26;;;;;;;5.13;1.50;;;;;;;;;;5056364;28;20479;-72
2021/12/11 02:23:57;;;;;;;5.00;1.50;;;;;;;;;;5056369;28;20452;-72
2021/12/11 02:26:24;;;;;;;3.57;1.70;;;;;;;;;;5056450;28;20933;-72
2021/12/11 02:28:54;;;;;;;3.10;1.70;;;;;;;;;;5056383;28;20804;-72
2021/12/11 02:31:26;;;;;;;2.57;1.70;;;;;;;;;;5056328;28;20831;-72
2021/12/11 02:33:56;;;;;;;4.03;2.50;;;;;;;;;;5056138;28;20448;-72
2021/12/11 02:36:25;;;;;;;2.90;1.67;;;;;;;;;;5056104;28;20459;-72
2021/12/11 02:38:55;;;;;;;2.70;2.27;;;;;;;;;;5056130;28;20940;-72
2021/12/11 02:41:28;;;;;;;2.03;1.70;;;;;;;;;;5055922;28;20460;-72
2021/12/11 02:43:56;;;;;;;2.23;1.73;;;;;;;;;;5056043;28;20457;-73
2021/12/11 02:46:29;;;;;;;2.50;1.57;;;;;;;;;;5056026;28;20451;-73
2021/12/11 02:48:58;;;;;;;4.17;2.10;;;;;;;;;;5055925;28;20808;-72
2021/12/11 02:51:30;;;;;;;3.23;1.73;;;;;;;;;;5055738;28;20949;-72
2021/12/11 02:54:02;;;;;;;2.97;1.50;;;;;;;;;;5055693;28;20496;-72
2021/12/11 02:56:33;;;;;;;2.30;1.80;;;;;;;;;;5055904;28;20457;-72
2021/12/11 02:59:02;;;;;;;1.93;1.47;;;;;;;;;;5055591;28;20563;-72
2021/12/11 03:01:31;;;;;;;2.33;1.50;;;;;;;;;;5055197;28;20886;-72
2021/12/11 03:04:04;;;;;;;2.37;1.60;;;;;;;;;;5055483;28;20999;-72
2021/12/11 03:06:38;;;;;;;1.87;1.27;;;;;;;;;;5055566;28;20456;-72
2021/12/11 03:09:06;;;;;;;4.47;1.53;;;;;;;;;;5055607;28;20457;-72
2021/12/11 03:11:35;;;;;;;2.00;1.53;;;;;;;;;;5055372;28;20456;-72
2021/12/11 03:14:04;;;;;;;5.17;1.70;;;;;;;;;;5055263;28;20463;-72
2021/12/11 03:16:35;;;;;;;4.97;2.00;;;;;;;;;;5055270;28;20457;-72
2021/12/11 03:19:05;;;;;;;7.73;2.00;;;;;;;;;;5055317;28;20929;-72
2021/12/11 03:21:32;;;;;;;5.30;3.70;;;;;;;;;;5055358;28;20442;-72
2021/12/11 03:23:59;;;;;;;1.73;1.50;;;;;;;;;;5055337;28;20827;-73
2021/12/11 03:26:26;;;;;;;2.30;1.70;;;;;;;;;;5055198;28;20934;-72
2021/12/11 03:28:55;;;;;;;2.50;1.53;;;;;;;;;;5055419;28;20453;-73
2021/12/11 03:31:23;;;;;;;1.97;1.47;;;;;;;;;;5055091;28;20824;-73
2021/12/11 03:33:52;;;;;;;1.80;1.40;;;;;;;;;;5054914;28;20449;-72
2021/12/11 03:36:20;;;;;;;2.67;1.80;;;;;;;;;;5055133;28;20488;-73
2021/12/11 03:38:49;;;;;;;2.73;1.53;;;;;;;;;;5054836;28;20454;-72
2021/12/11 03:41:16;;;;;;;7.13;1.77;;;;;;;;;;5054850;28;21000;-72
2021/12/11 03:43:43;;;;;;;1.90;1.60;;;;;;;;;;5054702;28;20475;-72
2021/12/11 03:46:12;;;;;;;2.03;1.80;;;;;;;;;;5054960;28;20802;-72
2021/12/11 03:48:41;;;;;;;2.60;1.80;;;;;;;;;;5054673;28;20448;-72
2021/12/11 03:51:10;;;;;;;2.87;1.90;;;;;;;;;;5054705;28;20472;-72
2021/12/11 03:53:37;;;;;;;3.27;1.50;;;;;;;;;;5054625;28;20949;-72
2021/12/11 03:56:07;;;;;;;2.50;2.10;;;;;;;;;;5054724;28;20524;-72
2021/12/11 03:58:35;;;;;;;3.20;2.13;;;;;;;;;;5054605;28;20528;-72
2021/12/11 04:01:06;;;;;;;3.20;2.40;;;;;;;;;;5054425;28;20512;-72
2021/12/11 04:03:36;;;;;;;3.67;1.60;;;;;;;;;;5054104;28;20556;-72
2021/12/11 04:06:08;;;;;;;2.67;1.80;;;;;;;;;;5054698;28;20445;-72
2021/12/11 04:08:40;;;;;;;2.03;1.73;;;;;;;;;;5054341;28;20456;-72
2021/12/11 04:11:09;;;;;;;2.33;1.90;;;;;;;;;;5054462;28;20551;-72
2021/12/11 04:13:36;;;;;;;2.53;2.00;;;;;;;;;;5053147;28;20460;-72
2021/12/11 04:16:03;;;;;;;3.27;2.10;;;;;;;;;;5054347;28;20457;-72
2021/12/11 04:18:30;;;;;;;5.43;1.97;;;;;;;;;;5054052;28;20463;-72
2021/12/11 04:20:59;;;;;;;4.90;2.47;;;;;;;;;;5054221;28;20488;-72
2021/12/11 04:23:26;;;;;;;3.30;1.90;;;;;;;;;;5054078;28;20452;-72
2021/12/11 04:25:55;;;;;;;2.93;1.80;;;;;;;;;;5054081;28;20809;-72
2021/12/11 04:28:26;;;;;;;3.23;1.50;;;;;;;;;;5054108;28;20479;-72
2021/12/11 04:31:01;;;;;;;1.97;1.57;;;;;;;;;;5054221;28;20444;-72
2021/12/11 04:33:28;;;;;;;4.60;2.00;;;;;;;;;;5053775;28;20459;-72
2021/12/11 04:35:56;;;;;;;3.73;2.37;;;;;;;;;;5054210;28;20972;-72
2021/12/11 04:38:24;;;;;;;5.10;2.10;;;;;;;;;;5053813;28;20452;-72
2021/12/11 04:40:55;;;;;;;3.03;1.73;;;;;;;;;;5053910;28;21022;-72
2021/12/11 04:43:24;;;;;;;2.40;1.60;;;;;;;;;;5053834;28;20457;-72
2021/12/11 04:45:54;;;;;;;2.33;1.50;;;;;;;;;;5053851;28;20475;-72
2021/12/11 04:48:29;;;;;;;4.60;2.03;;;;;;;;;;5053501;28;20457;-72
2021/12/11 04:51:01;;;;;;;8.97;1.77;;;;;;;;;;5053666;28;20452;-72
2021/12/11 04:53:44;;;;;;;2.33;1.60;;;;;;;;;;5053319;28;20466;-72
2021/12/11 04:56:32;;;;;;;2.77;1.80;;;;;;;;;;5053717;28;20555;-72
2021/12/11 04:59:18;;;;;;;6.10;2.40;;;;;;;;;;5053519;28;20479;-72
2021/12/11 05:01:56;;;;;;;4.27;2.90;;;;;;;;;;5053488;28;20866;-72
2021/12/11 05:07:23;;;;;;;2.70;2.30;;;;;;;;;;5047985;28;20957;-72
2021/12/11 05:09:56;;;;;;;2.80;1.83;;;;;;;;;;5053357;28;20449;-72
2021/12/11 05:12:34;;;;;;;5.50;2.83;;;;;;;;;;5053217;28;20539;-72
2021/12/11 05:15:01;;;;;;;2.87;2.30;;;;;;;;;;5053141;28;20869;-72
2021/12/11 05:17:29;;;;;;;3.70;2.10;;;;;;;;;;5053137;28;20448;-72
2021/12/11 05:19:56;;;;;;;2.00;1.63;;;;;;;;;;5053225;28;20941;-72
2021/12/11 05:22:23;;;;;;;3.37;2.60;;;;;;;;;;5053059;28;20453;-72
2021/12/11 05:24:53;;;;;;;2.30;2.10;;;;;;;;;;5052827;28;20452;-72
2021/12/11 05:27:21;;;;;;;3.00;2.47;;;;;;;;;;5053115;28;20451;-72
2021/12/11 05:29:48;;;;;;;6.97;3.70;;;;;;;;;;5053053;28;20460;-72
2021/12/11 05:32:17;;;;;;;3.17;2.87;;;;;;;;;;5052911;28;20452;-72
2021/12/11 05:34:44;;;;;;;8.30;3.03;;;;;;;;;;5052846;28;20453;-72
2021/12/11 05:37:12;;;;;;;6.07;2.43;;;;;;;;;;5053012;28;20452;-72
2021/12/11 05:39:40;;;;;;;7.10;3.00;;;;;;;;;;5052780;28;20452;-72
2021/12/11 05:42:09;;;;;;;6.73;2.33;;;;;;;;;;5052864;28;20847;-72
2021/12/11 05:44:36;;;;;;;7.13;3.07;;;;;;;;;;5052602;28;20471;-72
2021/12/11 05:47:05;;;;;;;7.70;3.93;;;;;;;;;;5052710;28;20456;-72
2021/12/11 05:49:33;;;;;;;5.60;2.90;;;;;;;;;;5052781;28;20834;-72
2021/12/11 05:52:01;;;;;;;4.03;2.80;;;;;;;;;;5053068;28;20938;-72
2021/12/11 05:54:29;;;;;;;4.27;3.33;;;;;;;;;;5052652;28;20815;-72
2021/12/11 05:56:59;;;;;;;6.03;3.37;;;;;;;;;;5052846;28;20449;-72
2021/12/11 05:59:28;;;;;;;9.33;4.40;;;;;;;;;;5052605;28;20503;-72
2021/12/11 06:02:00;;;;;;;5.30;3.63;;;;;;;;;;5052754;28;20499;-72
2021/12/11 06:04:28;;;;;;;4.20;3.10;;;;;;;;;;5052714;28;20479;-72
2021/12/11 06:06:56;;;;;;;5.33;3.90;;;;;;;;;;5052911;28;20949;-72
2021/12/11 06:09:24;;;;;;;4.73;3.23;;;;;;;;;;5052513;28;20452;-72
2021/12/11 06:11:53;;;;;;;4.40;3.60;;;;;;;;;;5052661;28;20448;-72
2021/12/11 06:14:21;;;;;;;4.57;3.00;;;;;;;;;;5052443;28;20459;-72
2021/12/11 06:16:51;;;;;;;8.83;3.67;;;;;;;;;;5052771;28;20453;-72
2021/12/11 06:19:21;;;;;;;3.90;3.03;;;;;;;;;;5052428;28;20449;-72
2021/12/11 06:21:49;;;;;;;4.33;2.97;;;;;;;;;;5052566;28;20545;-72
2021/12/11 06:24:16;;;;;;;4.77;2.40;;;;;;;;;;5052498;28;20456;-72
2021/12/11 06:26:43;;;;;;;4.13;3.00;;;;;;;;;;5052542;28;20544;-72
2021/12/11 06:29:11;;;;;;;8.33;3.63;;;;;;;;;;5052632;28;20816;-72
2021/12/11 06:31:38;;;;;;;4.33;2.60;;;;;;;;;;5052692;28;20449;-72
2021/12/11 06:34:07;;;;;;;4.33;3.37;;;;;;;;;;5052435;28;20455;-72
2021/12/11 06:36:34;;;;;;;3.37;2.47;;;;;;;;;;5054665;28;20449;-73
2021/12/11 06:39:02;;;;;;;4.10;2.77;;;;;;;;;;5056059;28;20445;-72
2021/12/11 06:41:32;;;;;;;5.20;3.00;;;;;;;;;;5056086;28;20492;-72
2021/12/11 06:43:59;;;;;;;4.13;3.00;;;;;;;;;;5055950;28;20463;-72
2021/12/11 06:46:27;;;;;;;4.47;2.80;;;;;;;;;;5055952;28;20461;-72
2021/12/11 06:48:54;;;;;;;4.07;2.90;;;;;;;;;;5056420;28;20495;-72
2021/12/11 06:51:22;;;;;;;3.40;2.73;;;;;;;;;;5056029;28;20819;-72
2021/12/11 06:53:54;;;;;;;8.53;5.57;;;;;;;;;;5055814;28;20475;-72
2021/12/11 06:56:22;;;;;;;5.43;3.80;;;;;;;;;;5055873;28;20445;-72
2021/12/11 06:58:51;;;;;;;5.67;2.93;;;;;;;;;;5055910;28;20449;-72
2021/12/11 07:01:19;;;;;;;6.10;2.90;;;;;;;;;;5055728;28;20604;-72
2021/12/11 07:03:46;;;;;;;4.87;3.10;;;;;;;;;;5055405;28;20457;-72
2021/12/11 07:06:14;;;;;;;4.70;3.27;;;;;;;;;;5055780;28;20441;-72
2021/12/11 07:08:42;;;;;;;3.20;2.90;;;;;;;;;;5055894;28;20949;-72
2021/12/11 07:11:10;;;;;;;4.90;3.17;;;;;;;;;;5055482;28;20937;-72
2021/12/11 07:13:37;;;;;;;6.03;4.47;;;;;;;;;;5055328;28;20960;-72
2021/12/11 07:16:05;;;;;;;4.67;3.70;;;;;;;;;;5055560;28;20817;-72
2021/12/11 07:18:34;;;;;;;3.80;3.17;;;;;;;;;;5055423;28;20949;-72
2021/12/11 07:21:01;;;;;;;9.60;3.97;;;;;;;;;;5055370;28;20481;-72
2021/12/11 07:23:28;;;;;;;7.70;3.40;;;;;;;;;;5055011;28;20459;-72
2021/12/11 07:25:58;;;;;;;7.33;3.70;;;;;;;;;;5055414;28;20453;-72
2021/12/11 07:28:26;;;;;;;4.00;3.30;;;;;;;;;;5055005;28;20452;-72
2021/12/11 07:30:54;;;;;;;5.10;3.20;;;;;;;;;;5055251;28;20448;-72
2021/12/11 07:33:21;;;;;;;8.90;4.83;;;;;;;;;;5054946;28;20441;-72
2021/12/11 07:35:49;;;;;;;3.40;2.77;;;;;;;;;;5055093;28;20448;-72
2021/12/11 07:38:18;;;;;;;5.80;4.50;;;;;;;;;;5055076;28;20456;-72
2021/12/11 07:40:48;;;;;;;6.43;3.30;;;;;;;;;;5055190;28;20493;-72
2021/12/11 07:43:17;;;;;;;6.13;3.47;;;;;;;;;;5053810;28;20449;-73
2021/12/11 07:45:44;;;;;;;4.87;3.73;;;;;;;;;;5050085;28;20524;-73
2021/12/11 07:48:11;;;;;;;6.80;3.53;;;;;;;;;;5052632;28;20473;-72
2021/12/11 07:50:39;;;;;;;6.07;4.33;;;;;;;;;;5052816;28;20552;-72
2021/12/11 07:53:06;;;;;;;7.30;3.83;;;;;;;;;;5052847;28;20464;-72
2021/12/11 07:55:33;;;;;;;4.27;3.53;;;;;;;;;;5052492;28;20584;-72
2021/12/11 07:58:01;;;;;;;4.37;3.50;;;;;;;;;;5052459;28;20477;-72
2021/12/11 08:00:31;;;;;;;4.80;2.93;;;;;;;;;;5052330;28;20487;-72
2021/12/11 08:02:58;;;;;;;4.53;3.50;;;;;;;;;;5052995;28;20464;-72
2021/12/11 08:05:28;;;;;;;8.33;3.33;;;;;;;;;;5052331;28;20468;-73
2021/12/11 08:07:58;;;;;;;4.87;3.00;;;;;;;;;;5052766;28;20468;-73
2021/12/11 08:10:26;;;;;;;3.77;2.80;;;;;;;;;;5052814;28;20468;-73
2021/12/11 08:12:53;;;;;;;5.17;3.20;;;;;;;;;;5052819;28;20829;-73
2021/12/11 08:15:20;;;;;;;4.30;2.57;;;;;;;;;;5052352;28;20857;-72
2021/12/11 08:17:54;;;;;;;7.37;2.93;;;;;;;;;;5053280;28;20504;-72
2021/12/11 08:20:23;;;;;;;3.43;2.77;;;;;;;;;;5053053;28;20455;-73
2021/12/11 08:22:51;;;;;;;3.57;2.40;;;;;;;;;;5052596;28;20484;-73
2021/12/11 08:25:18;;;;;;;3.10;2.60;;;;;;;;;;5052821;28;20437;-73
2021/12/11 08:27:46;;;;;;;13.13;3.00;;;;;;;;;;5052981;28;20471;-73
2021/12/11 08:30:13;;;;;;;3.90;2.70;;;;;;;;;;5052605;28;20872;-73
2021/12/11 08:32:41;;;;;;;3.70;2.33;;;;;;;;;;5052541;28;20457;-73
2021/12/11 08:35:11;;;;;;;4.63;3.13;;;;;;;;;;5052787;28;20456;-73
2021/12/11 08:37:40;;;;;;;2.67;2.40;;;;;;;;;;5052507;28;20549;-73
2021/12/11 08:40:09;;;;;;;3.73;2.73;;;;;;;;;;5052867;28;20827;-73
2021/12/11 08:42:37;;;;;;;4.73;3.00;;;;;;;;;;5052731;28;20488;-73
2021/12/11 08:45:06;;;;;;;7.23;3.30;;;;;;;;;;5052429;28;20953;-73
2021/12/11 08:47:35;;;;;;;3.67;2.83;;;;;;;;;;5052792;28;20530;-73
2021/12/11 08:50:02;;;;;;;6.03;2.80;;;;;;;;;;5054833;28;20465;-73
2021/12/11 08:52:33;;;;;;;4.90;3.70;;;;;;;;;;5052292;28;20499;-74
2021/12/11 08:55:01;;;;;;;5.53;4.43;;;;;;;;;;5052395;28;20453;-73
2021/12/11 08:57:30;;;;;;;6.67;3.20;;;;;;;;;;5052052;28;20528;-73
2021/12/11 08:59:59;;;;;;;4.40;3.10;;;;;;;;;;5051863;28;20465;-73
2021/12/11 09:02:27;;;;;;;5.30;3.50;;;;;;;;;;5052155;28;20491;-73
2021/12/11 09:04:56;;;;;;;6.77;3.83;;;;;;;;;;5052309;28;21181;-73
2021/12/11 09:07:25;;;;;;;3.70;2.90;;;;;;;;;;5051973;28;20461;-73
2021/12/11 09:09:55;;;;;;;7.23;3.40;;;;;;;;;;5052983;28;20460;-73
2021/12/11 09:12:25;;;;;;;3.33;3.03;;;;;;;;;;5051985;28;20456;-74
2021/12/11 09:14:54;;;;;;;5.47;4.33;;;;;;;;;;5051956;28;20530;-73
2021/12/11 09:17:25;;;;;;;4.73;3.70;;;;;;;;;;5051878;28;20448;-72
2021/12/11 09:19:54;;;;;;;7.50;3.23;;;;;;;;;;5051672;28;20460;-73
2021/12/11 09:22:23;;;;;;;4.40;3.20;;;;;;;;;;5051722;28;20489;-73
2021/12/11 09:24:54;;;;;;;4.77;3.43;;;;;;;;;;5051866;28;20514;-73
2021/12/11 09:27:24;;;;;;;4.73;3.87;;;;;;;;;;5051562;28;20455;-73
2021/12/11 09:29:53;;;;;;;7.13;4.30;;;;;;;;;;5052161;28;20452;-73
2021/12/11 09:32:23;;;;;;;14.07;5.50;;;;;;;;;;5051550;28;20445;-73
2021/12/11 09:34:53;;;;;;;6.50;4.27;;;;;;;;;;5051092;28;20452;-73
2021/12/11 09:37:21;;;;;;;8.67;4.40;;;;;;;;;;5051903;28;20437;-73
2021/12/11 09:39:50;;;;;;;5.57;3.23;;;;;;;;;;5051900;28;20452;-73
2021/12/11 09:42:17;;;;;;;6.43;3.40;;;;;;;;;;5051256;28;20492;-73
2021/12/11 09:44:47;;;;;;;5.70;5.00;;;;;;;;;;5051180;28;20449;-73
2021/12/11 09:47:16;;;;;;;10.23;5.77;;;;;;;;;;5051899;28;20873;-73
2021/12/11 09:49:45;;;;;;;7.37;3.87;;;;;;;;;;5050524;28;20464;-73
2021/12/11 09:52:18;;;;;;;8.03;4.47;;;;;;;;;;5051179;28;21034;-75
2021/12/11 09:54:47;;;;;;;16.60;8.33;;;;;;;;;;5031743;28;20915;-74
2021/12/11 09:57:16;;;;;;;7.93;5.70;;;;;;;;;;5031328;28;20454;-74
2021/12/11 09:59:45;;;;;;;5.77;4.50;;;;;;;;;;5031316;28;20466;-73
2021/12/11 10:02:18;;;;;;;6.70;4.70;;;;;;;;;;5035243;28;20594;-73
2021/12/11 10:04:52;;;;;;;6.17;3.90;;;;;;;;;;5049540;28;20483;-73
2021/12/11 10:07:30;;;;;;;5.10;3.93;;;;;;;;;;5051710;28;20972;-73
2021/12/11 10:10:02;;;;;;;5.67;3.97;;;;;;;;;;5052154;28;20457;-71
2021/12/11 10:12:32;;;;;;;7.10;4.97;;;;;;;;;;5056437;28;20457;-71
2021/12/11 10:15:01;;;;;;;8.00;5.80;;;;;;;;;;5056826;28;20447;-71
2021/12/11 10:17:36;;;;;;;8.97;4.70;;;;;;;;;;5056897;28;20500;-72
2021/12/11 10:20:06;;;;;;;6.10;4.30;;;;;;;;;;5057605;28;20517;-72
2021/12/11 10:22:35;;;;;;;11.37;5.57;;;;;;;;;;5058865;28;20484;-72
2021/12/11 10:25:03;;;;;;;4.60;4.00;;;;;;;;;;5058251;28;20476;-72
2021/12/11 10:27:33;;;;;;;6.20;3.90;;;;;;;;;;5057507;28;20465;-72
2021/12/11 10:30:01;;;;;;;6.10;4.17;;;;;;;;;;5057688;28;20799;-72
2021/12/11 10:32:31;;;;;;;6.17;5.57;;;;;;;;;;5058195;28;20459;-72
2021/12/11 10:34:59;;;;;;;5.80;4.37;;;;;;;;;;5057956;28;20794;-72
2021/12/11 10:37:29;;;;;;;8.87;5.73;;;;;;;;;;5056628;28;20460;-72
2021/12/11 10:39:58;;;;;;;6.57;4.67;;;;;;;;;;5057376;28;20467;-72
2021/12/11 10:42:25;;;;;;;6.90;4.73;;;;;;;;;;5056314;28;20480;-72
2021/12/11 10:44:53;;;;;;;8.43;5.77;;;;;;;;;;5056123;28;20461;-72
2021/12/11 10:47:22;;;;;;;7.60;6.03;;;;;;;;;;5056745;28;20459;-72
2021/12/11 10:49:51;;;;;;;6.50;4.90;;;;;;;;;;5056739;28;20964;-72
2021/12/11 10:52:20;;;;;;;6.90;5.63;;;;;;;;;;5056556;28;20453;-72
2021/12/11 10:54:48;;;;;;;6.03;4.40;;;;;;;;;;5057260;28;20452;-72
2021/12/11 10:57:16;;;;;;;5.50;5.00;;;;;;;;;;5057148;28;20460;-72
2021/12/11 10:59:44;;;;;;;6.53;5.00;;;;;;;;;;5057319;28;20518;-73
2021/12/11 11:02:13;;;;;;;6.80;5.40;;;;;;;;;;5055537;28;20572;-72
2021/12/11 11:04:42;;;;;;;8.93;5.47;;;;;;;;;;5055470;28;20457;-74
2021/12/11 11:07:11;;;;;;;9.20;6.30;;;;;;;;;;5054420;28;20460;-74
2021/12/11 11:09:41;;;;;;;8.00;5.80;;;;;;;;;;5055208;28;20832;-75
2021/12/11 11:12:10;;;;;;;5.57;4.07;;;;;;;;;;5054067;28;20445;-75
2021/12/11 11:14:37;;;;;;;5.50;4.43;;;;;;;;;;5055722;28;20452;-73
2021/12/11 11:17:07;;;;;;;6.83;5.37;;;;;;;;;;5056374;28;20452;-73
2021/12/11 11:19:36;;;;;;;7.40;4.83;;;;;;;;;;5055492;28;20456;-74
2021/12/11 11:22:06;;;;;;;6.70;5.73;;;;;;;;;;5054923;28;20562;-74
2021/12/11 11:24:35;;;;;;;6.20;4.57;;;;;;;;;;5055223;28;20501;-74
2021/12/11 11:27:03;;;;;;;5.90;5.30;;;;;;;;;;5055370;28;20433;-75
2021/12/11 11:29:31;;;;;;;5.47;4.83;;;;;;;;;;5055244;28;20476;-74
2021/12/11 11:32:00;;;;;;;5.33;4.73;;;;;;;;;;5055293;28;20888;-75
2021/12/11 11:34:28;;;;;;;8.00;6.00;;;;;;;;;;5055851;28;20457;-74
2021/12/11 11:36:56;;;;;;;7.90;6.67;;;;;;;;;;5056637;28;20532;-76
2021/12/11 11:39:24;;;;;;;8.03;5.80;;;;;;;;;;5055039;28;20471;-76
2021/12/11 11:41:54;;;;;;;8.47;5.40;;;;;;;;;;5055172;28;20460;-75
2021/12/11 11:44:24;;;;;;;8.53;6.77;;;;;;;;;;5057203;28;20841;-73
2021/12/11 11:46:53;;;;;;;6.60;5.73;;;;;;;;;;5058437;28;20814;-73
2021/12/11 11:49:20;;;;;;;5.33;4.83;;;;;;;;;;5056813;28;20433;-74
2021/12/11 11:51:50;;;;;;;6.80;6.10;;;;;;;;;;5056994;28;20777;-74
2021/12/11 11:54:19;;;;;;;11.70;7.40;;;;;;;;;;5056045;28;20457;-73
2021/12/11 11:56:48;;;;;;;7.37;6.37;;;;;;;;;;5055493;28;20456;-75
2021/12/11 11:59:16;;;;;;;7.90;6.40;;;;;;;;;;5055743;28;20468;-73
2021/12/11 12:01:45;;;;;;;8.73;7.07;;;;;;;;;;5057651;28;20457;-73
2021/12/11 12:04:15;;;;;;;10.30;6.57;;;;;;;;;;5057513;28;20490;-73
2021/12/11 12:06:43;;;;;;;8.40;6.27;;;;;;;;;;5057694;28;20460;-73
2021/12/11 12:09:13;;;;;;;9.00;6.10;;;;;;;;;;5057940;28;20461;-72
2021/12/11 12:11:41;;;;;;;9.17;6.23;;;;;;;;;;5057168;28;20456;-73
2021/12/11 12:14:09;;;;;;;10.07;6.70;;;;;;;;;;5057444;28;20445;-73
2021/12/11 12:16:38;;;;;;;9.43;6.33;;;;;;;;;;5057396;28;20448;-73
2021/12/11 12:19:06;;;;;;;7.50;6.33;;;;;;;;;;5057075;28;20449;-76
2021/12/11 12:21:34;;;;;;;9.20;6.77;;;;;;;;;;5054183;28;20460;-75
2021/12/11 12:24:01;;;;;;;9.63;6.60;;;;;;;;;;5056098;28;20614;-74
2021/12/11 12:26:30;;;;;;;11.77;6.60;;;;;;;;;;5054098;28;20457;-74
2021/12/11 12:28:58;;;;;;;9.97;7.60;;;;;;;;;;5055314;28;20445;-74
2021/12/11 12:31:26;;;;;;;10.57;8.00;;;;;;;;;;5056981;28;20461;-74
2021/12/11 12:33:55;;;;;;;10.73;8.00;;;;;;;;;;5056018;28;20826;-73
2021/12/11 12:36:23;;;;;;;9.23;7.23;;;;;;;;;;5056879;28;20449;-74
2021/12/11 12:38:51;;;;;;;11.73;7.77;;;;;;;;;;5056121;28;20942;-73
2021/12/11 12:41:19;;;;;;;11.30;7.23;;;;;;;;;;5056971;28;20906;-74
2021/12/11 12:46:43;;;;;;;9.93;7.80;;;;;;;;;;5020923;28;20468;-73
2021/12/11 12:49:12;;;;;;;7.07;5.70;;;;;;;;;;5055982;28;20452;-74
2021/12/11 12:51:39;;;;;;;13.20;8.90;;;;;;;;;;5057004;28;20465;-74
2021/12/11 12:54:08;;;;;;;17.10;10.67;;;;;;;;;;5056245;28;20444;-74
2021/12/11 12:56:36;;;;;;;39.97;15.00;;;;;;;;;;5055796;28;20456;-74
2021/12/11 12:59:09;;;;;;;8.87;6.70;;;;;;;;;;5055251;28;20455;-74
2021/12/11 13:01:40;;;;;;;10.07;7.27;;;;;;;;;;5055558;28;20801;-74
2021/12/11 13:04:08;;;;;;;9.90;6.73;;;;;;;;;;5055081;28;20575;-74
2021/12/11 13:06:38;;;;;;;8.93;6.30;;;;;;;;;;5056584;28;20463;-74
2021/12/11 13:09:09;;;;;;;7.83;6.33;;;;;;;;;;5055912;28;20437;-74
2021/12/11 13:11:39;;;;;;;9.87;7.23;;;;;;;;;;5055829;28;20551;-74
2021/12/11 13:14:07;;;;;;;9.73;6.77;;;;;;;;;;5054815;28;20451;-73
2021/12/11 13:16:36;;;;;;;10.40;7.60;;;;;;;;;;5054916;28;20983;-73
2021/12/11 13:19:05;;;;;;;9.13;7.17;;;;;;;;;;5055095;28;20437;-73
2021/12/11 13:21:35;;;;;;;14.67;7.30;;;;;;;;;;5055230;28;20476;-73
2021/12/11 13:24:05;;;;;;;10.27;7.50;;;;;;;;;;5054894;28;21019;-74
2021/12/11 13:26:33;;;;;;;8.30;5.97;;;;;;;;;;5056247;28;20437;-73
2021/12/11 13:29:02;;;;;;;9.43;7.70;;;;;;;;;;5055856;28;20464;-73
2021/12/11 13:31:31;;;;;;;8.50;6.43;;;;;;;;;;5054308;28;20547;-73
2021/12/11 13:33:59;;;;;;;10.93;8.00;;;;;;;;;;5055593;28;20789;-73
2021/12/11 13:36:26;;;;;;;12.97;7.10;;;;;;;;;;5055292;28;20448;-73
2021/12/11 13:38:54;;;;;;;9.40;6.87;;;;;;;;;;5054703;28;20526;-73
2021/12/11 13:41:24;;;;;;;9.63;7.20;;;;;;;;;;5055044;28;20455;-74
2021/12/11 13:43:52;;;;;;;10.90;8.63;;;;;;;;;;5055320;28;20480;-74
2021/12/11 13:46:20;;;;;;;10.60;7.67;;;;;;;;;;5061379;28;20452;-74
2021/12/11 13:48:47;;;;;;;11.80;8.33;;;;;;;;;;5060320;28;20951;-73
2021/12/11 13:51:17;;;;;;;15.17;8.90;;;;;;;;;;5059925;28;20544;-72
2021/12/11 13:53:45;;;;;;;10.63;8.10;;;;;;;;;;5060130;28;20447;-73
2021/12/11 13:56:15;;;;;;;10.20;8.07;;;;;;;;;;5059541;28;20466;-73
2021/12/11 13:58:44;;;;;;;14.70;8.70;;;;;;;;;;5059952;28;20514;-73
2021/12/11 14:01:13;;;;;;;20.90;11.93;;;;;;;;;;5059944;28;20440;-73
2021/12/11 14:03:40;;;;;;;12.83;9.37;;;;;;;;;;5060088;28;20495;-73
2021/12/11 14:06:09;;;;;;;13.17;9.00;;;;;;;;;;5060707;28;20467;-73
2021/12/11 14:08:38;;;;;;;13.30;9.83;;;;;;;;;;5061620;28;20495;-73
2021/12/11 14:11:06;;;;;;;13.37;8.77;;;;;;;;;;5061332;28;20491;-75
2021/12/11 14:13:33;;;;;;;12.53;8.77;;;;;;;;;;5061076;28;20447;-73
2021/12/11 14:16:03;;;;;;;13.57;8.77;;;;;;;;;;5060047;28;20459;-73
2021/12/11 14:18:30;;;;;;;13.83;8.93;;;;;;;;;;5059963;28;20461;-73
2021/12/11 14:20:58;;;;;;;14.33;9.33;;;;;;;;;;5060203;28;20947;-73
2021/12/11 14:23:27;;;;;;;13.10;9.10;;;;;;;;;;5060413;28;20496;-73
2021/12/11 14:25:55;;;;;;;15.27;9.30;;;;;;;;;;5060375;28;20505;-73
2021/12/11 14:28:24;;;;;;;12.37;9.13;;;;;;;;;;5060681;28;20455;-73
2021/12/11 14:30:52;;;;;;;18.80;9.77;;;;;;;;;;5060169;28;20448;-73
2021/12/11 14:33:21;;;;;;;14.80;10.00;;;;;;;;;;5060240;28;20808;-73
2021/12/11 14:35:49;;;;;;;13.00;8.63;;;;;;;;;;5059763;28;20456;-73
2021/12/11 14:38:17;;;;;;;12.53;8.57;;;;;;;;;;5059566;28;20452;-73
2021/12/11 14:40:45;;;;;;;15.27;9.33;;;;;;;;;;5059798;28;20451;-73
2021/12/11 14:43:14;;;;;;;13.63;9.63;;;;;;;;;;5059075;28;20484;-73
2021/12/11 14:45:42;;;;;;;31.43;17.20;;;;;;;;;;5060807;28;20448;-73
2021/12/11 14:48:09;;;;;;;49.73;28.73;;;;;;;;;;5060238;28;20455;-73
2021/12/11 14:50:39;;;;;;;21.37;13.70;;;;;;;;;;5060143;28;20452;-73
2021/12/11 14:53:09;;;;;;;32.43;19.93;;;;;;;;;;5060269;28;20428;-73
2021/12/11 14:55:39;;;;;;;32.97;17.50;;;;;;;;;;5059836;28;20452;-73
2021/12/11 14:58:06;;;;;;;17.67;11.57;;;;;;;;;;5055992;28;20448;-73